Terminal Aerodrome Forecast
Issued by NWS Greer, SC

Home | Current Version | Previous Version | Text Only | Print | Product List | Glossary On
Versions: 1 2 3 4 5 6 7 8 9 10 11 12 13 14 15 16 17 18 19 20 21 22 23 24 25 26 27 28 29 30 31 32 33 34 35 36 37 38 39 40 41 42 43 44 45 46
000
FTUS42 KGSP 272341
TAFAVL
TAF
KAVL 272341Z 2800/2824 18005KT P6SM SCT110 BKN200
     FM280200 18004KT P6SM -SHRA VCTS BKN050CB OVC130
      TEMPO 2803/2806 3SM -TSRA OVC040CB
     FM280600 18003KT P6SM VCSH BKN060
     FM281000 18003KT 5SM BR SCT015 BKN070
     FM281300 20003KT P6SM BKN035
     FM281800 33010KT P6SM SCT050=

USA.gov is the U.S. government's official web portal to all federal, state and local government web resources and services.